^^
Station Historical Data
Daily Summary for May 29, 2017 Units:  Both    English   Metric
« Previous Day
Next Day »
Daily Weekly Monthly Yearly Custom
  High: Low: Average:
Temperature: 73.9 °F /  23.3 °C 40.3 °F /  4.6 °C 56 °F /  13.3 °C
Dew Point: 33.1 °F /  0.6 °C 19.8 °F /  -6.8 °C 26.9 °F /  -2.8 °C
Humidity: 59% 16% 36%
Wind Speed: 10.1mph /  16.3km/h - 0.9mph /  1.4km/h
Wind Gust: 12.0mph /  19.3km/h - -
Wind- - East
Pressure: 30.49 in /  1032.4 hPa 30.36 in /  1028 hPa -
Precipitation: 0.00 in /  0 mm    
Historical Graphs
 
 
Tabular Data for May 29, 2017
Time Temperature Dew Point Pressure Wind Wind Speed Wind Gust Humidity Rainfall Rate (Hourly) solar Conditions
00:00 44.2 °F /  6.8 °C 25.7 °F /  -3.5 °C 30.46in /  1031.4hPa Calm     48% 0.00in /  0mm 0.0 W/m2
00:06 43.9 °F /  6.6 °C 25.5 °F /  -3.6 °C 30.46in /  1031.4hPa Calm     48% 0.00in /  0mm 0.0 W/m2
00:12 43.5 °F /  6.4 °C 25.2 °F /  -3.8 °C 30.46in /  1031.4hPa Calm     48% 0.00in /  0mm 0.0 W/m2
00:18 43.3 °F /  6.3 °C 25.9 °F /  -3.4 °C 30.46in /  1031.4hPa Calm     50% 0.00in /  0mm 0.0 W/m2
00:24 43.2 °F /  6.2 °C 25.7 °F /  -3.5 °C 30.46in /  1031.4hPa Calm     50% 0.00in /  0mm 0.0 W/m2
00:30 43.0 °F /  6.1 °C 25.7 °F /  -3.5 °C 30.46in /  1031.4hPa Calm     50% 0.00in /  0mm 0.0 W/m2
00:36 43.0 °F /  6.1 °C 25.2 °F /  -3.8 °C 30.46in /  1031.4hPa Calm     49% 0.00in /  0mm 0.0 W/m2
00:42 43.2 °F /  6.2 °C 25.3 °F /  -3.7 °C 30.46in /  1031.4hPa Calm   2.0mph /  3.2km/h 49% 0.00in /  0mm 0.0 W/m2
00:48 43.3 °F /  6.3 °C 25.0 °F /  -3.9 °C 30.46in /  1031.4hPa Calm   1.0mph /  1.6km/h 48% 0.00in /  0mm 0.0 W/m2
00:54 43.7 °F /  6.5 °C 26.2 °F /  -3.2 °C 30.46in /  1031.4hPa Calm     50% 0.00in /  0mm 0.0 W/m2
01:00 43.9 °F /  6.6 °C 25.9 °F /  -3.4 °C 30.46in /  1031.4hPa Calm     49% 0.00in /  0mm 0.0 W/m2
01:02 43.9 °F /  6.6 °C 25.9 °F /  -3.4 °C 30.46in /  1031.4hPa Calm     49% 0.00in /  0mm 0.0 W/m2
01:08 43.9 °F /  6.6 °C 25.9 °F /  -3.4 °C 30.46in /  1031.4hPa Calm     49% 0.00in /  0mm 0.0 W/m2
01:14 43.9 °F /  6.6 °C 25.9 °F /  -3.4 °C 30.46in /  1031.4hPa Calm     49% 0.00in /  0mm 0.0 W/m2
01:20 43.9 °F /  6.6 °C 25.5 °F /  -3.6 °C 30.46in /  1031.4hPa Calm     48% 0.00in /  0mm 0.0 W/m2
01:26 43.9 °F /  6.6 °C 25.9 °F /  -3.4 °C 30.46in /  1031.4hPa Calm     49% 0.00in /  0mm 0.0 W/m2
01:32 43.9 °F /  6.6 °C 26.4 °F /  -3.1 °C 30.46in /  1031.4hPa Calm     50% 0.00in /  0mm 0.0 W/m2
01:38 43.7 °F /  6.5 °C 25.7 °F /  -3.5 °C 30.46in /  1031.4hPa Calm     49% 0.00in /  0mm 0.0 W/m2
01:44 43.5 °F /  6.4 °C 26.1 °F /  -3.3 °C 30.46in /  1031.4hPa Calm     50% 0.00in /  0mm 0.0 W/m2
01:50 43.5 °F /  6.4 °C 27.1 °F /  -2.7 °C 30.45in /  1031hPa Calm     52% 0.00in /  0mm 0.0 W/m2
01:56 43.3 °F /  6.3 °C 27.0 °F /  -2.8 °C 30.45in /  1031hPa Calm     52% 0.00in /  0mm 0.0 W/m2
02:02 43.2 °F /  6.2 °C 27.1 °F /  -2.7 °C 30.46in /  1031.4hPa Calm     53% 0.00in /  0mm 0.0 W/m2
02:08 43.0 °F /  6.1 °C 27.5 °F /  -2.5 °C 30.46in /  1031.4hPa Calm     54% 0.00in /  0mm 0.0 W/m2
02:14 42.8 °F /  6 °C 27.7 °F /  -2.4 °C 30.46in /  1031.4hPa Calm     55% 0.00in /  0mm 0.0 W/m2
02:20 42.6 °F /  5.9 °C 27.1 °F /  -2.7 °C 30.46in /  1031.4hPa Calm     54% 0.00in /  0mm 0.0 W/m2
02:26 42.3 °F /  5.7 °C 26.8 °F /  -2.9 °C 30.46in /  1031.4hPa Calm     54% 0.00in /  0mm 0.0 W/m2
02:32 42.1 °F /  5.6 °C 27.1 °F /  -2.7 °C 30.45in /  1031hPa Calm     55% 0.00in /  0mm 0.0 W/m2
02:38 41.9 °F /  5.5 °C 27.0 °F /  -2.8 °C 30.45in /  1031hPa Calm     55% 0.00in /  0mm 0.0 W/m2
02:44 41.7 °F /  5.4 °C 27.1 °F /  -2.7 °C 30.45in /  1031hPa Calm     56% 0.00in /  0mm 0.0 W/m2
02:50 41.5 °F /  5.3 °C 27.5 °F /  -2.5 °C 30.45in /  1031hPa Calm     57% 0.00in /  0mm 0.0 W/m2
02:56 41.4 °F /  5.2 °C 26.8 °F /  -2.9 °C 30.45in /  1031hPa Calm     56% 0.00in /  0mm 0.0 W/m2
03:02 41.2 °F /  5.1 °C 27.1 °F /  -2.7 °C 30.45in /  1031hPa Calm     57% 0.00in /  0mm 0.0 W/m2
03:09 40.8 °F /  4.9 °C 26.8 °F /  -2.9 °C 30.45in /  1031hPa Calm     57% 0.00in /  0mm 0.0 W/m2
03:15 40.8 °F /  4.9 °C 26.8 °F /  -2.9 °C 30.45in /  1031hPa Calm     57% 0.00in /  0mm 0.0 W/m2
03:21 40.6 °F /  4.8 °C 26.6 °F /  -3 °C 30.45in /  1031hPa Calm     57% 0.00in /  0mm 0.0 W/m2
03:27 40.6 °F /  4.8 °C 26.6 °F /  -3 °C 30.45in /  1031hPa Calm     57% 0.00in /  0mm 0.0 W/m2
03:33 40.6 °F /  4.8 °C 26.6 °F /  -3 °C 30.45in /  1031hPa Calm     57% 0.00in /  0mm 0.0 W/m2
03:39 40.6 °F /  4.8 °C 26.6 °F /  -3 °C 30.45in /  1031hPa Calm     57% 0.00in /  0mm 0.0 W/m2
03:45 40.6 °F /  4.8 °C 26.6 °F /  -3 °C 30.45in /  1031hPa Calm     57% 0.00in /  0mm 0.0 W/m2
03:51 40.8 °F /  4.9 °C 26.8 °F /  -2.9 °C 30.45in /  1031hPa Calm     57% 0.00in /  0mm 0.0 W/m2
03:57 41.0 °F /  5 °C 27.0 °F /  -2.8 °C 30.45in /  1031hPa Calm     57% 0.00in /  0mm 0.0 W/m2
04:03 41.2 °F /  5.1 °C 27.1 °F /  -2.7 °C 30.45in /  1031hPa Calm     57% 0.00in /  0mm 0.0 W/m2
04:09 41.0 °F /  5 °C 27.0 °F /  -2.8 °C 30.46in /  1031.4hPa Calm     57% 0.00in /  0mm 0.0 W/m2
04:15 40.8 °F /  4.9 °C 26.8 °F /  -2.9 °C 30.45in /  1031hPa Calm     57% 0.00in /  0mm 0.0 W/m2
04:22 40.8 °F /  4.9 °C 27.1 °F /  -2.7 °C 30.45in /  1031hPa Calm     58% 0.00in /  0mm 0.0 W/m2
04:28 40.6 °F /  4.8 °C 27.0 °F /  -2.8 °C 30.45in /  1031hPa Calm     58% 0.00in /  0mm 0.0 W/m2
04:34 40.5 °F /  4.7 °C 26.8 °F /  -2.9 °C 30.45in /  1031hPa Calm     58% 0.00in /  0mm 0.0 W/m2
04:40 40.3 °F /  4.6 °C 27.1 °F /  -2.7 °C 30.45in /  1031hPa Calm     59% 0.00in /  0mm 0.0 W/m2
04:46 40.3 °F /  4.6 °C 26.6 °F /  -3 °C 30.44in /  1030.7hPa Calm     58% 0.00in /  0mm 0.0 W/m2
04:52 40.6 °F /  4.8 °C 26.6 °F /  -3 °C 30.44in /  1030.7hPa Calm   3.0mph /  4.8km/h 57% 0.00in /  0mm 0.0 W/m2
04:58 41.4 °F /  5.2 °C 26.8 °F /  -2.9 °C 30.45in /  1031hPa Calm   1.0mph /  1.6km/h 56% 0.00in /  0mm 0.0 W/m2
05:04 42.1 °F /  5.6 °C 26.6 °F /  -3 °C 30.45in /  1031hPa Calm     54% 0.00in /  0mm 0.0 W/m2
05:10 42.3 °F /  5.7 °C 26.8 °F /  -2.9 °C 30.45in /  1031hPa Calm     54% 0.00in /  0mm 0.0 W/m2
05:16 42.4 °F /  5.8 °C 27.0 °F /  -2.8 °C 30.45in /  1031hPa Calm     54% 0.00in /  0mm 0.0 W/m2
05:22 42.4 °F /  5.8 °C 27.0 °F /  -2.8 °C 30.45in /  1031hPa Calm     54% 0.00in /  0mm 0.0 W/m2
05:29 42.4 °F /  5.8 °C 27.0 °F /  -2.8 °C 30.45in /  1031hPa East 2.9mph /  4.7km/h 4.0mph /  6.4km/h 54% 0.00in /  0mm 0.0 W/m2
05:35 42.6 °F /  5.9 °C 26.6 °F /  -3 °C 30.45in /  1031hPa Calm   1.0mph /  1.6km/h 53% 0.00in /  0mm 0.0 W/m2
05:41 43.0 °F /  6.1 °C 26.6 °F /  -3 °C 30.45in /  1031hPa Calm   4.0mph /  6.4km/h 52% 0.00in /  0mm 0.0 W/m2
05:47 43.3 °F /  6.3 °C 26.4 °F /  -3.1 °C 30.45in /  1031hPa Calm   4.0mph /  6.4km/h 51% 0.00in /  0mm 0.0 W/m2
05:53 43.9 °F /  6.6 °C 27.0 °F /  -2.8 °C 30.46in /  1031.4hPa Calm   1.0mph /  1.6km/h 51% 0.00in /  0mm 0.0 W/m2
05:59 43.9 °F /  6.6 °C 27.0 °F /  -2.8 °C 30.45in /  1031hPa Calm   1.0mph /  1.6km/h 51% 0.00in /  0mm 0.0 W/m2
06:05 44.1 °F /  6.7 °C 27.1 °F /  -2.7 °C 30.46in /  1031.4hPa Calm     51% 0.00in /  0mm 0.0 W/m2
06:11 44.1 °F /  6.7 °C 27.1 °F /  -2.7 °C 30.46in /  1031.4hPa Calm     51% 0.00in /  0mm 0.0 W/m2
06:17 43.9 °F /  6.6 °C 27.3 °F /  -2.6 °C 30.46in /  1031.4hPa Calm     52% 0.00in /  0mm 0.0 W/m2
06:23 43.9 °F /  6.6 °C 27.3 °F /  -2.6 °C 30.46in /  1031.4hPa Calm   1.0mph /  1.6km/h 52% 0.00in /  0mm 0.0 W/m2
06:29 43.9 °F /  6.6 °C 27.0 °F /  -2.8 °C 30.47in /  1031.7hPa Calm   1.0mph /  1.6km/h 51% 0.00in /  0mm 5.0 W/m2
06:35 44.1 °F /  6.7 °C 27.1 °F /  -2.7 °C 30.47in /  1031.7hPa Calm   3.0mph /  4.8km/h 51% 0.00in /  0mm 7.0 W/m2
06:41 44.4 °F /  6.9 °C 27.9 °F /  -2.3 °C 30.47in /  1031.7hPa Calm   1.0mph /  1.6km/h 52% 0.00in /  0mm 11.0 W/m2
06:47 45.0 °F /  7.2 °C 27.5 °F /  -2.5 °C 30.47in /  1031.7hPa SE 2.0mph /  3.2km/h 3.0mph /  4.8km/h 50% 0.00in /  0mm 12.0 W/m2
06:53 45.3 °F /  7.4 °C 27.9 °F /  -2.3 °C 30.47in /  1031.7hPa Calm   3.0mph /  4.8km/h 50% 0.00in /  0mm 12.0 W/m2
06:59 45.7 °F /  7.6 °C 27.7 °F /  -2.4 °C 30.47in /  1031.7hPa ESE 2.0mph /  3.2km/h 2.0mph /  3.2km/h 49% 0.00in /  0mm 14.0 W/m2
07:05 46.2 °F /  7.9 °C 28.0 °F /  -2.2 °C 30.47in /  1031.7hPa Calm   1.0mph /  1.6km/h 49% 0.00in /  0mm 16.0 W/m2
07:11 46.8 °F /  8.2 °C 28.0 °F /  -2.2 °C 30.47in /  1031.7hPa Calm   3.0mph /  4.8km/h 48% 0.00in /  0mm 18.0 W/m2
07:17 47.5 °F /  8.6 °C 28.2 °F /  -2.1 °C 30.47in /  1031.7hPa ESE 0.9mph /  1.4km/h 4.0mph /  6.4km/h 47% 0.00in /  0mm 19.0 W/m2
07:24 48.0 °F /  8.9 °C 28.8 °F /  -1.8 °C 30.47in /  1031.7hPa Calm   6.0mph /  9.7km/h 47% 0.00in /  0mm 19.0 W/m2
07:30 48.6 °F /  9.2 °C 28.8 °F /  -1.8 °C 30.47in /  1031.7hPa East 0.9mph /  1.4km/h 5.0mph /  8km/h 46% 0.00in /  0mm 21.0 W/m2
07:36 49.5 °F /  9.7 °C 28.4 °F /  -2 °C 30.47in /  1031.7hPa Calm   5.0mph /  8km/h 44% 0.00in /  0mm 23.0 W/m2
07:42 50.2 °F /  10.1 °C 28.6 °F /  -1.9 °C 30.47in /  1031.7hPa Calm   7.0mph /  11.3km/h 43% 0.00in /  0mm 23.0 W/m2
07:48 50.9 °F /  10.5 °C 28.6 °F /  -1.9 °C 30.47in /  1031.7hPa Calm   7.0mph /  11.3km/h 42% 0.00in /  0mm 25.0 W/m2
07:54 52.0 °F /  11.1 °C 28.9 °F /  -1.7 °C 30.47in /  1031.7hPa NE 2.9mph /  4.7km/h 7.0mph /  11.3km/h 41% 0.00in /  0mm 26.0 W/m2
08:00 53.4 °F /  11.9 °C 29.1 °F /  -1.6 °C 30.47in /  1031.7hPa NE 4.0mph /  6.4km/h 9.0mph /  14.5km/h 39% 0.00in /  0mm 44.0 W/m2
08:06 54.5 °F /  12.5 °C 29.5 °F /  -1.4 °C 30.47in /  1031.7hPa East 2.9mph /  4.7km/h 12.0mph /  19.3km/h 38% 0.00in /  0mm 330.0 W/m2
08:13 55.2 °F /  12.9 °C 29.5 °F /  -1.4 °C 30.47in /  1031.7hPa East 10.1mph /  16.3km/h 10.1mph /  16.3km/h 37% 0.00in /  0mm 352.0 W/m2
08:19 55.9 °F /  13.3 °C 29.3 °F /  -1.5 °C 30.47in /  1031.7hPa SE 2.0mph /  3.2km/h 8.0mph /  12.9km/h 36% 0.00in /  0mm 371.0 W/m2
08:25 56.5 °F /  13.6 °C 29.8 °F /  -1.2 °C 30.47in /  1031.7hPa NE 10.1mph /  16.3km/h 10.1mph /  16.3km/h 36% 0.00in /  0mm 388.0 W/m2
08:31 56.8 °F /  13.8 °C 29.5 °F /  -1.4 °C 30.47in /  1031.7hPa NE 2.9mph /  4.7km/h 6.0mph /  9.7km/h 35% 0.00in /  0mm 408.0 W/m2
08:37 57.4 °F /  14.1 °C 29.3 °F /  -1.5 °C 30.47in /  1031.7hPa NE 2.0mph /  3.2km/h 8.0mph /  12.9km/h 34% 0.00in /  0mm 429.0 W/m2
08:43 57.9 °F /  14.4 °C 30.4 °F /  -0.9 °C 30.48in /  1032.1hPa ENE 0.9mph /  1.4km/h 5.0mph /  8km/h 35% 0.00in /  0mm 446.0 W/m2
08:49 58.6 °F /  14.8 °C 29.7 °F /  -1.3 °C 30.48in /  1032.1hPa SSE 2.0mph /  3.2km/h 5.0mph /  8km/h 33% 0.00in /  0mm 464.0 W/m2
08:55 59.2 °F /  15.1 °C 29.3 °F /  -1.5 °C 30.48in /  1032.1hPa NE 6.9mph /  11.1km/h 11.0mph /  17.7km/h 32% 0.00in /  0mm 482.0 W/m2
09:02 59.4 °F /  15.2 °C 29.5 °F /  -1.4 °C 30.48in /  1032.1hPa NNE 2.0mph /  3.2km/h 9.0mph /  14.5km/h 32% 0.00in /  0mm 499.0 W/m2
09:08 59.7 °F /  15.4 °C 28.9 °F /  -1.7 °C 30.48in /  1032.1hPa NE 2.9mph /  4.7km/h 9.0mph /  14.5km/h 31% 0.00in /  0mm 515.0 W/m2
09:14 60.1 °F /  15.6 °C 30.2 °F /  -1 °C 30.48in /  1032.1hPa NNE 2.9mph /  4.7km/h 9.0mph /  14.5km/h 32% 0.00in /  0mm 533.0 W/m2
09:20 60.4 °F /  15.8 °C 29.7 °F /  -1.3 °C 30.48in /  1032.1hPa ESE 4.9mph /  7.9km/h 11.0mph /  17.7km/h 31% 0.00in /  0mm 547.0 W/m2
09:26 60.8 °F /  16 °C 30.0 °F /  -1.1 °C 30.48in /  1032.1hPa NE 2.9mph /  4.7km/h 11.0mph /  17.7km/h 31% 0.00in /  0mm 561.0 W/m2
09:32 61.3 °F /  16.3 °C 30.4 °F /  -0.9 °C 30.49in /  1032.4hPa Calm   6.0mph /  9.7km/h 31% 0.00in /  0mm 575.0 W/m2
09:38 61.9 °F /  16.6 °C 30.0 °F /  -1.1 °C 30.48in /  1032.1hPa ENE 0.9mph /  1.4km/h 5.0mph /  8km/h 30% 0.00in /  0mm 589.0 W/m2
09:45 62.2 °F /  16.8 °C 30.4 °F /  -0.9 °C 30.48in /  1032.1hPa Calm   10.0mph /  16.1km/h 30% 0.00in /  0mm 603.0 W/m2
09:51 63.0 °F /  17.2 °C 30.2 °F /  -1 °C 30.48in /  1032.1hPa ESE 2.9mph /  4.7km/h 7.0mph /  11.3km/h 29% 0.00in /  0mm 613.0 W/m2
09:59 63.7 °F /  17.6 °C 30.7 °F /  -0.7 °C 30.48in /  1032.1hPa Calm   6.0mph /  9.7km/h 29% 0.00in /  0mm 629.0 W/m2
10:05 64.2 °F /  17.9 °C 30.4 °F /  -0.9 °C 30.47in /  1031.7hPa NE 6.0mph /  9.7km/h 8.0mph /  12.9km/h 28% 0.00in /  0mm 640.0 W/m2
10:13 64.8 °F /  18.2 °C 31.8 °F /  -0.1 °C 30.47in /  1031.7hPa ESE 2.0mph /  3.2km/h 5.0mph /  8km/h 29% 0.00in /  0mm 650.0 W/m2
10:19 65.5 °F /  18.6 °C 30.6 °F /  -0.8 °C 30.47in /  1031.7hPa East 0.9mph /  1.4km/h 7.0mph /  11.3km/h 27% 0.00in /  0mm 663.0 W/m2
10:25 66.0 °F /  18.9 °C 32.0 °F /  0 °C 30.47in /  1031.7hPa SE 0.9mph /  1.4km/h 5.0mph /  8km/h 28% 0.00in /  0mm 671.0 W/m2
10:31 66.6 °F /  19.2 °C 31.5 °F /  -0.3 °C 30.47in /  1031.7hPa NNE 2.9mph /  4.7km/h 7.0mph /  11.3km/h 27% 0.00in /  0mm 679.0 W/m2
10:37 66.9 °F /  19.4 °C 30.9 °F /  -0.6 °C 30.47in /  1031.7hPa NNE 0.9mph /  1.4km/h 4.0mph /  6.4km/h 26% 0.00in /  0mm 686.0 W/m2
10:43 67.6 °F /  19.8 °C 31.5 °F /  -0.3 °C 30.46in /  1031.4hPa NNW 2.9mph /  4.7km/h 8.0mph /  12.9km/h 26% 0.00in /  0mm 694.0 W/m2
10:49 68.2 °F /  20.1 °C 31.1 °F /  -0.5 °C 30.46in /  1031.4hPa Calm   8.0mph /  12.9km/h 25% 0.00in /  0mm 700.0 W/m2
10:55 68.4 °F /  20.2 °C 31.1 °F /  -0.5 °C 30.45in /  1031hPa NE 8.1mph /  13km/h 8.1mph /  13km/h 25% 0.00in /  0mm 705.0 W/m2
11:02 68.7 °F /  20.4 °C 31.5 °F /  -0.3 °C 30.45in /  1031hPa Calm   5.0mph /  8km/h 25% 0.00in /  0mm 710.0 W/m2
11:08 69.4 °F /  20.8 °C 32.0 °F /  0 °C 30.45in /  1031hPa Calm   4.0mph /  6.4km/h 25% 0.00in /  0mm 715.0 W/m2
11:14 70.0 °F /  21.1 °C 32.5 °F /  0.3 °C 30.44in /  1030.7hPa Calm   3.0mph /  4.8km/h 25% 0.00in /  0mm 717.0 W/m2
11:20 70.5 °F /  21.4 °C 33.1 °F /  0.6 °C 30.44in /  1030.7hPa Calm   5.0mph /  8km/h 25% 0.00in /  0mm 722.0 W/m2
11:26 70.5 °F /  21.4 °C 32.0 °F /  0 °C 30.44in /  1030.7hPa ENE 4.0mph /  6.4km/h 7.0mph /  11.3km/h 24% 0.00in /  0mm 724.0 W/m2
11:32 70.9 °F /  21.6 °C 31.3 °F /  -0.4 °C 30.43in /  1030.4hPa Calm   5.0mph /  8km/h 23% 0.00in /  0mm 724.0 W/m2
11:38 71.2 °F /  21.8 °C 31.5 °F /  -0.3 °C 30.43in /  1030.4hPa NNE 6.0mph /  9.7km/h 6.0mph /  9.7km/h 23% 0.00in /  0mm 724.0 W/m2
11:44 71.2 °F /  21.8 °C 31.5 °F /  -0.3 °C 30.43in /  1030.4hPa Calm   5.0mph /  8km/h 23% 0.00in /  0mm 724.0 W/m2
11:51 71.4 °F /  21.9 °C 30.6 °F /  -0.8 °C 30.42in /  1030hPa Calm   6.0mph /  9.7km/h 22% 0.00in /  0mm 726.0 W/m2
11:56 72.0 °F /  22.2 °C 31.1 °F /  -0.5 °C 30.42in /  1030hPa ENE 4.9mph /  7.9km/h 6.0mph /  9.7km/h 22% 0.00in /  0mm 726.0 W/m2
12:02 72.1 °F /  22.3 °C 31.1 °F /  -0.5 °C 30.42in /  1030hPa NNE 0.9mph /  1.4km/h 4.0mph /  6.4km/h 22% 0.00in /  0mm 722.0 W/m2
12:08 72.5 °F /  22.5 °C 30.4 °F /  -0.9 °C 30.41in /  1029.7hPa ENE 0.9mph /  1.4km/h 6.0mph /  9.7km/h 21% 0.00in /  0mm 722.0 W/m2
12:14 72.9 °F /  22.7 °C 30.6 °F /  -0.8 °C 30.41in /  1029.7hPa Calm   1.0mph /  1.6km/h 21% 0.00in /  0mm 717.0 W/m2
12:21 73.2 °F /  22.9 °C 29.7 °F /  -1.3 °C 30.41in /  1029.7hPa Calm   2.0mph /  3.2km/h 20% 0.00in /  0mm 715.0 W/m2
12:27 73.2 °F /  22.9 °C 28.4 °F /  -2 °C 30.41in /  1029.7hPa North 0.9mph /  1.4km/h 3.0mph /  4.8km/h 19% 0.00in /  0mm 714.0 W/m2
12:33 73.2 °F /  22.9 °C 27.1 °F /  -2.7 °C 30.41in /  1029.7hPa NNW 0.9mph /  1.4km/h 6.0mph /  9.7km/h 18% 0.00in /  0mm 705.0 W/m2
12:39 73.2 °F /  22.9 °C 28.4 °F /  -2 °C 30.40in /  1029.3hPa NW 0.9mph /  1.4km/h 7.0mph /  11.3km/h 19% 0.00in /  0mm 701.0 W/m2
12:45 73.2 °F /  22.9 °C 28.4 °F /  -2 °C 30.40in /  1029.3hPa Calm   4.0mph /  6.4km/h 19% 0.00in /  0mm 693.0 W/m2
12:52 73.0 °F /  22.8 °C 27.0 °F /  -2.8 °C 30.40in /  1029.3hPa Calm   3.0mph /  4.8km/h 18% 0.00in /  0mm 686.0 W/m2
12:57 73.0 °F /  22.8 °C 28.4 °F /  -2 °C 30.39in /  1029hPa NE 2.0mph /  3.2km/h 5.0mph /  8km/h 19% 0.00in /  0mm 680.0 W/m2
13:03 73.2 °F /  22.9 °C 28.4 °F /  -2 °C 30.39in /  1029hPa Calm   4.0mph /  6.4km/h 19% 0.00in /  0mm 670.0 W/m2
13:09 73.2 °F /  22.9 °C 27.1 °F /  -2.7 °C 30.39in /  1029hPa Calm   3.0mph /  4.8km/h 18% 0.00in /  0mm 661.0 W/m2
13:16 73.2 °F /  22.9 °C 28.4 °F /  -2 °C 30.39in /  1029hPa NNE 4.9mph /  7.9km/h 6.0mph /  9.7km/h 19% 0.00in /  0mm 650.0 W/m2
13:22 73.6 °F /  23.1 °C 28.8 °F /  -1.8 °C 30.38in /  1028.7hPa Calm   3.0mph /  4.8km/h 19% 0.00in /  0mm 640.0 W/m2
13:28 73.4 °F /  23 °C 27.3 °F /  -2.6 °C 30.38in /  1028.7hPa Calm   4.0mph /  6.4km/h 18% 0.00in /  0mm 631.0 W/m2
13:34 73.6 °F /  23.1 °C 26.1 °F /  -3.3 °C 30.37in /  1028.3hPa Calm   5.0mph /  8km/h 17% 0.00in /  0mm 621.0 W/m2
13:40 73.6 °F /  23.1 °C 26.1 °F /  -3.3 °C 30.37in /  1028.3hPa NE 0.9mph /  1.4km/h 5.0mph /  8km/h 17% 0.00in /  0mm 610.0 W/m2
13:47 73.8 °F /  23.2 °C 26.2 °F /  -3.2 °C 30.37in /  1028.3hPa East 4.0mph /  6.4km/h 7.0mph /  11.3km/h 17% 0.00in /  0mm 598.0 W/m2
13:52 73.8 °F /  23.2 °C 26.2 °F /  -3.2 °C 30.37in /  1028.3hPa North 6.0mph /  9.7km/h 7.0mph /  11.3km/h 17% 0.00in /  0mm 585.0 W/m2
13:58 73.8 °F /  23.2 °C 24.8 °F /  -4 °C 30.37in /  1028.3hPa NNW 0.9mph /  1.4km/h 7.0mph /  11.3km/h 16% 0.00in /  0mm 570.0 W/m2
14:04 73.9 °F /  23.3 °C 25.0 °F /  -3.9 °C 30.37in /  1028.3hPa Calm   6.0mph /  9.7km/h 16% 0.00in /  0mm 557.0 W/m2
14:10 73.9 °F /  23.3 °C 25.0 °F /  -3.9 °C 30.37in /  1028.3hPa NNE 2.9mph /  4.7km/h 7.0mph /  11.3km/h 16% 0.00in /  0mm 543.0 W/m2
14:17 73.9 °F /  23.3 °C 26.4 °F /  -3.1 °C 30.37in /  1028.3hPa NNW 0.9mph /  1.4km/h 5.0mph /  8km/h 17% 0.00in /  0mm 529.0 W/m2
14:23 73.9 °F /  23.3 °C 27.7 °F /  -2.4 °C 30.37in /  1028.3hPa ESE 0.9mph /  1.4km/h 4.0mph /  6.4km/h 18% 0.00in /  0mm 512.0 W/m2
14:29 73.9 °F /  23.3 °C 26.4 °F /  -3.1 °C 30.36in /  1028hPa ENE 4.0mph /  6.4km/h 6.0mph /  9.7km/h 17% 0.00in /  0mm 496.0 W/m2
14:35 73.8 °F /  23.2 °C 26.2 °F /  -3.2 °C 30.36in /  1028hPa Calm   9.0mph /  14.5km/h 17% 0.00in /  0mm 476.0 W/m2
14:41 73.6 °F /  23.1 °C 26.1 °F /  -3.3 °C 30.36in /  1028hPa SE 0.9mph /  1.4km/h 8.0mph /  12.9km/h 17% 0.00in /  0mm 461.0 W/m2
14:47 73.6 °F /  23.1 °C 26.1 °F /  -3.3 °C 30.36in /  1028hPa South 2.9mph /  4.7km/h 4.0mph /  6.4km/h 17% 0.00in /  0mm 443.0 W/m2
14:53 73.2 °F /  22.9 °C 25.7 °F /  -3.5 °C 30.36in /  1028hPa NNW 2.0mph /  3.2km/h 7.0mph /  11.3km/h 17% 0.00in /  0mm 425.0 W/m2
14:59 73.2 °F /  22.9 °C 27.1 °F /  -2.7 °C 30.36in /  1028hPa Calm   3.0mph /  4.8km/h 18% 0.00in /  0mm 408.0 W/m2
15:05 73.0 °F /  22.8 °C 28.4 °F /  -2 °C 30.36in /  1028hPa NE 0.9mph /  1.4km/h 7.0mph /  11.3km/h 19% 0.00in /  0mm 388.0 W/m2
15:12 72.9 °F /  22.7 °C 27.0 °F /  -2.8 °C 30.36in /  1028hPa Calm   6.0mph /  9.7km/h 18% 0.00in /  0mm 366.0 W/m2
15:18 72.9 °F /  22.7 °C 27.0 °F /  -2.8 °C 30.36in /  1028hPa Calm   5.0mph /  8km/h 18% 0.00in /  0mm 350.0 W/m2
15:24 72.5 °F /  22.5 °C 25.2 °F /  -3.8 °C 30.36in /  1028hPa ENE 4.0mph /  6.4km/h 4.0mph /  6.4km/h 17% 0.00in /  0mm 53.0 W/m2
15:30 72.3 °F /  22.4 °C 25.0 °F /  -3.9 °C 30.37in /  1028.3hPa NNW 2.0mph /  3.2km/h 5.0mph /  8km/h 17% 0.00in /  0mm 40.0 W/m2
15:36 72.0 °F /  22.2 °C 26.1 °F /  -3.3 °C 30.36in /  1028hPa Calm   2.0mph /  3.2km/h 18% 0.00in /  0mm 37.0 W/m2
15:42 71.4 °F /  21.9 °C 27.0 °F /  -2.8 °C 30.36in /  1028hPa NE 4.0mph /  6.4km/h 7.0mph /  11.3km/h 19% 0.00in /  0mm 35.0 W/m2
15:48 71.1 °F /  21.7 °C 25.3 °F /  -3.7 °C 30.36in /  1028hPa ESE 4.9mph /  7.9km/h 5.0mph /  8km/h 18% 0.00in /  0mm 33.0 W/m2
15:54 70.9 °F /  21.6 °C 26.6 °F /  -3 °C 30.36in /  1028hPa Calm   5.0mph /  8km/h 19% 0.00in /  0mm 30.0 W/m2
16:01 70.3 °F /  21.3 °C 24.8 °F /  -4 °C 30.36in /  1028hPa North 0.9mph /  1.4km/h 5.0mph /  8km/h 18% 0.00in /  0mm 25.0 W/m2
16:07 70.2 °F /  21.2 °C 26.1 °F /  -3.3 °C 30.36in /  1028hPa ENE 2.0mph /  3.2km/h 3.0mph /  4.8km/h 19% 0.00in /  0mm 21.0 W/m2
16:13 69.6 °F /  20.9 °C 25.5 °F /  -3.6 °C 30.36in /  1028hPa East 0.9mph /  1.4km/h 3.0mph /  4.8km/h 19% 0.00in /  0mm 19.0 W/m2
16:19 69.3 °F /  20.7 °C 23.9 °F /  -4.5 °C 30.36in /  1028hPa ENE 0.9mph /  1.4km/h 6.0mph /  9.7km/h 18% 0.00in /  0mm 19.0 W/m2
16:25 69.1 °F /  20.6 °C 23.7 °F /  -4.6 °C 30.37in /  1028.3hPa NE 2.0mph /  3.2km/h 4.0mph /  6.4km/h 18% 0.00in /  0mm 18.0 W/m2
16:31 68.7 °F /  20.4 °C 23.5 °F /  -4.7 °C 30.37in /  1028.3hPa East 2.9mph /  4.7km/h 4.0mph /  6.4km/h 18% 0.00in /  0mm 16.0 W/m2
16:37 68.5 °F /  20.3 °C 24.6 °F /  -4.1 °C 30.37in /  1028.3hPa ENE 2.0mph /  3.2km/h 3.0mph /  4.8km/h 19% 0.00in /  0mm 16.0 W/m2
16:43 68.2 °F /  20.1 °C 24.3 °F /  -4.3 °C 30.37in /  1028.3hPa NE 2.0mph /  3.2km/h 3.0mph /  4.8km/h 19% 0.00in /  0mm 14.0 W/m2
16:49 67.8 °F /  19.9 °C 25.3 °F /  -3.7 °C 30.37in /  1028.3hPa NE 2.0mph /  3.2km/h 2.0mph /  3.2km/h 20% 0.00in /  0mm 12.0 W/m2
16:56 67.3 °F /  19.6 °C 23.5 °F /  -4.7 °C 30.37in /  1028.3hPa Calm   1.0mph /  1.6km/h 19% 0.00in /  0mm 11.0 W/m2
17:02 66.7 °F /  19.3 °C 24.4 °F /  -4.2 °C 30.38in /  1028.7hPa Calm   6.0mph /  9.7km/h 20% 0.00in /  0mm 9.0 W/m2
17:08 66.2 °F /  19 °C 23.9 °F /  -4.5 °C 30.38in /  1028.7hPa NNE 2.0mph /  3.2km/h 2.0mph /  3.2km/h 20% 0.00in /  0mm 5.0 W/m2
17:14 65.7 °F /  18.7 °C 24.6 °F /  -4.1 °C 30.38in /  1028.7hPa Calm   1.0mph /  1.6km/h 21% 0.00in /  0mm 0.0 W/m2
17:20 65.1 °F /  18.4 °C 25.3 °F /  -3.7 °C 30.38in /  1028.7hPa Calm     22% 0.00in /  0mm 0.0 W/m2
17:26 64.6 °F /  18.1 °C 25.9 °F /  -3.4 °C 30.38in /  1028.7hPa Calm     23% 0.00in /  0mm 0.0 W/m2
17:32 63.9 °F /  17.7 °C 26.4 °F /  -3.1 °C 30.38in /  1028.7hPa Calm     24% 0.00in /  0mm 0.0 W/m2
17:38 63.0 °F /  17.2 °C 25.5 °F /  -3.6 °C 30.38in /  1028.7hPa Calm   1.0mph /  1.6km/h 24% 0.00in /  0mm 0.0 W/m2
17:45 62.2 °F /  16.8 °C 26.1 °F /  -3.3 °C 30.38in /  1028.7hPa Calm   2.0mph /  3.2km/h 25% 0.00in /  0mm 0.0 W/m2
17:51 61.3 °F /  16.3 °C 26.2 °F /  -3.2 °C 30.38in /  1028.7hPa Calm   2.0mph /  3.2km/h 26% 0.00in /  0mm 0.0 W/m2
17:57 60.6 °F /  15.9 °C 25.5 °F /  -3.6 °C 30.39in /  1029hPa Calm   1.0mph /  1.6km/h 26% 0.00in /  0mm 0.0 W/m2
18:04 60.1 °F /  15.6 °C 26.1 °F /  -3.3 °C 30.39in /  1029hPa ENE 0.9mph /  1.4km/h 1.0mph /  1.6km/h 27% 0.00in /  0mm 0.0 W/m2
18:09 59.4 °F /  15.2 °C 25.3 °F /  -3.7 °C 30.39in /  1029hPa Calm   1.0mph /  1.6km/h 27% 0.00in /  0mm 0.0 W/m2
18:15 58.8 °F /  14.9 °C 25.7 °F /  -3.5 °C 30.39in /  1029hPa Calm     28% 0.00in /  0mm 0.0 W/m2
18:22 58.3 °F /  14.6 °C 25.3 °F /  -3.7 °C 30.39in /  1029hPa Calm   1.0mph /  1.6km/h 28% 0.00in /  0mm 0.0 W/m2
18:28 57.7 °F /  14.3 °C 25.7 °F /  -3.5 °C 30.39in /  1029hPa Calm   2.0mph /  3.2km/h 29% 0.00in /  0mm 0.0 W/m2
18:34 57.4 °F /  14.1 °C 25.3 °F /  -3.7 °C 30.39in /  1029hPa Calm   1.0mph /  1.6km/h 29% 0.00in /  0mm 0.0 W/m2
18:40 56.8 °F /  13.8 °C 25.0 °F /  -3.9 °C 30.40in /  1029.3hPa Calm   1.0mph /  1.6km/h 29% 0.00in /  0mm 0.0 W/m2
18:46 56.5 °F /  13.6 °C 25.3 °F /  -3.7 °C 30.40in /  1029.3hPa ENE 0.9mph /  1.4km/h 1.0mph /  1.6km/h 30% 0.00in /  0mm 0.0 W/m2
18:52 56.1 °F /  13.4 °C 25.9 °F /  -3.4 °C 30.40in /  1029.3hPa Calm   2.0mph /  3.2km/h 31% 0.00in /  0mm 0.0 W/m2
18:58 55.8 °F /  13.2 °C 25.5 °F /  -3.6 °C 30.40in /  1029.3hPa Calm   2.0mph /  3.2km/h 31% 0.00in /  0mm 0.0 W/m2
19:04 55.4 °F /  13 °C 26.1 °F /  -3.3 °C 30.41in /  1029.7hPa Calm   2.0mph /  3.2km/h 32% 0.00in /  0mm 0.0 W/m2
19:10 55.0 °F /  12.8 °C 25.7 °F /  -3.5 °C 30.41in /  1029.7hPa Calm   2.0mph /  3.2km/h 32% 0.00in /  0mm 0.0 W/m2
19:17 54.7 °F /  12.6 °C 25.3 °F /  -3.7 °C 30.41in /  1029.7hPa East 2.0mph /  3.2km/h 2.0mph /  3.2km/h 32% 0.00in /  0mm 0.0 W/m2
19:23 54.5 °F /  12.5 °C 26.1 °F /  -3.3 °C 30.41in /  1029.7hPa Calm   3.0mph /  4.8km/h 33% 0.00in /  0mm 0.0 W/m2
19:30 54.1 °F /  12.3 °C 25.7 °F /  -3.5 °C 30.41in /  1029.7hPa Calm   1.0mph /  1.6km/h 33% 0.00in /  0mm 0.0 W/m2
19:35 54.0 °F /  12.2 °C 26.2 °F /  -3.2 °C 30.41in /  1029.7hPa ENE 0.9mph /  1.4km/h 2.0mph /  3.2km/h 34% 0.00in /  0mm 0.0 W/m2
19:41 53.8 °F /  12.1 °C 26.1 °F /  -3.3 °C 30.42in /  1030hPa NE 0.9mph /  1.4km/h 2.0mph /  3.2km/h 34% 0.00in /  0mm 0.0 W/m2
19:47 53.4 °F /  11.9 °C 25.7 °F /  -3.5 °C 30.42in /  1030hPa Calm   1.0mph /  1.6km/h 34% 0.00in /  0mm 0.0 W/m2
19:53 53.4 °F /  11.9 °C 25.7 °F /  -3.5 °C 30.42in /  1030hPa Calm   3.0mph /  4.8km/h 34% 0.00in /  0mm 0.0 W/m2
19:59 53.2 °F /  11.8 °C 25.5 °F /  -3.6 °C 30.42in /  1030hPa Calm   1.0mph /  1.6km/h 34% 0.00in /  0mm 0.0 W/m2
20:06 53.1 °F /  11.7 °C 25.3 °F /  -3.7 °C 30.43in /  1030.4hPa Calm   2.0mph /  3.2km/h 34% 0.00in /  0mm 0.0 W/m2
20:12 53.1 °F /  11.7 °C 26.1 °F /  -3.3 °C 30.43in /  1030.4hPa Calm   3.0mph /  4.8km/h 35% 0.00in /  0mm 0.0 W/m2
20:20 52.9 °F /  11.6 °C 25.9 °F /  -3.4 °C 30.43in /  1030.4hPa Calm   4.0mph /  6.4km/h 35% 0.00in /  0mm 0.0 W/m2
20:26 52.7 °F /  11.5 °C 25.9 °F /  -3.4 °C 30.43in /  1030.4hPa Calm   2.0mph /  3.2km/h 35% 0.00in /  0mm 0.0 W/m2
20:32 52.5 °F /  11.4 °C 25.7 °F /  -3.5 °C 30.43in /  1030.4hPa Calm   5.0mph /  8km/h 35% 0.00in /  0mm 0.0 W/m2
20:39 52.5 °F /  11.4 °C 25.7 °F /  -3.5 °C 30.44in /  1030.7hPa Calm   3.0mph /  4.8km/h 35% 0.00in /  0mm 0.0 W/m2
20:45 52.3 °F /  11.3 °C 26.2 °F /  -3.2 °C 30.44in /  1030.7hPa Calm   4.0mph /  6.4km/h 36% 0.00in /  0mm 0.0 W/m2
20:51 52.2 °F /  11.2 °C 26.1 °F /  -3.3 °C 30.44in /  1030.7hPa East 0.9mph /  1.4km/h 5.0mph /  8km/h 36% 0.00in /  0mm 0.0 W/m2
20:57 52.0 °F /  11.1 °C 25.9 °F /  -3.4 °C 30.44in /  1030.7hPa Calm   2.0mph /  3.2km/h 36% 0.00in /  0mm 0.0 W/m2
21:03 52.0 °F /  11.1 °C 26.6 °F /  -3 °C 30.44in /  1030.7hPa ESE 2.9mph /  4.7km/h 4.0mph /  6.4km/h 37% 0.00in /  0mm 0.0 W/m2
21:09 52.0 °F /  11.1 °C 26.6 °F /  -3 °C 30.44in /  1030.7hPa ESE 0.9mph /  1.4km/h 3.0mph /  4.8km/h 37% 0.00in /  0mm 0.0 W/m2
21:15 52.0 °F /  11.1 °C 26.6 °F /  -3 °C 30.44in /  1030.7hPa Calm   1.0mph /  1.6km/h 37% 0.00in /  0mm 0.0 W/m2
21:21 51.8 °F /  11 °C 26.4 °F /  -3.1 °C 30.44in /  1030.7hPa ESE 0.9mph /  1.4km/h 4.0mph /  6.4km/h 37% 0.00in /  0mm 0.0 W/m2
21:28 51.8 °F /  11 °C 26.4 °F /  -3.1 °C 30.44in /  1030.7hPa ESE 2.9mph /  4.7km/h 3.0mph /  4.8km/h 37% 0.00in /  0mm 0.0 W/m2
21:34 51.6 °F /  10.9 °C 26.2 °F /  -3.2 °C 30.44in /  1030.7hPa Calm   1.0mph /  1.6km/h 37% 0.00in /  0mm 0.0 W/m2
21:40 51.4 °F /  10.8 °C 26.1 °F /  -3.3 °C 30.44in /  1030.7hPa Calm   1.0mph /  1.6km/h 37% 0.00in /  0mm 0.0 W/m2
21:46 51.3 °F /  10.7 °C 25.9 °F /  -3.4 °C 30.44in /  1030.7hPa Calm   1.0mph /  1.6km/h 37% 0.00in /  0mm 0.0 W/m2
21:52 51.1 °F /  10.6 °C 25.7 °F /  -3.5 °C 30.44in /  1030.7hPa Calm   1.0mph /  1.6km/h 37% 0.00in /  0mm 0.0 W/m2
21:58 50.9 °F /  10.5 °C 26.2 °F /  -3.2 °C 30.44in /  1030.7hPa Calm     38% 0.00in /  0mm 0.0 W/m2
22:04 50.5 °F /  10.3 °C 25.9 °F /  -3.4 °C 30.44in /  1030.7hPa Calm   1.0mph /  1.6km/h 38% 0.00in /  0mm 0.0 W/m2
22:10 50.5 °F /  10.3 °C 25.9 °F /  -3.4 °C 30.44in /  1030.7hPa Calm   1.0mph /  1.6km/h 38% 0.00in /  0mm 0.0 W/m2
22:17 50.4 °F /  10.2 °C 25.7 °F /  -3.5 °C 30.44in /  1030.7hPa Calm   2.0mph /  3.2km/h 38% 0.00in /  0mm 0.0 W/m2
22:23 50.4 °F /  10.2 °C 25.7 °F /  -3.5 °C 30.44in /  1030.7hPa Calm     38% 0.00in /  0mm 0.0 W/m2
22:29 50.2 °F /  10.1 °C 25.5 °F /  -3.6 °C 30.44in /  1030.7hPa Calm     38% 0.00in /  0mm 0.0 W/m2
22:35 50.0 °F /  10 °C 25.3 °F /  -3.7 °C 30.43in /  1030.4hPa Calm     38% 0.00in /  0mm 0.0 W/m2
22:41 49.8 °F /  9.9 °C 25.2 °F /  -3.8 °C 30.44in /  1030.7hPa Calm     38% 0.00in /  0mm 0.0 W/m2
22:47 49.6 °F /  9.8 °C 25.0 °F /  -3.9 °C 30.44in /  1030.7hPa Calm     38% 0.00in /  0mm 0.0 W/m2
22:53 49.6 °F /  9.8 °C 25.0 °F /  -3.9 °C 30.43in /  1030.4hPa Calm   1.0mph /  1.6km/h 38% 0.00in /  0mm 0.0 W/m2
23:00 49.6 °F /  9.8 °C 24.4 °F /  -4.2 °C 30.43in /  1030.4hPa Calm   1.0mph /  1.6km/h 37% 0.00in /  0mm 0.0 W/m2
23:06 49.8 °F /  9.9 °C 24.6 °F /  -4.1 °C 30.43in /  1030.4hPa Calm   2.0mph /  3.2km/h 37% 0.00in /  0mm 0.0 W/m2
23:12 50.5 °F /  10.3 °C 23.9 °F /  -4.5 °C 30.44in /  1030.7hPa Calm   5.0mph /  8km/h 35% 0.00in /  0mm 0.0 W/m2
23:18 51.3 °F /  10.7 °C 23.2 °F /  -4.9 °C 30.44in /  1030.7hPa Calm   4.0mph /  6.4km/h 33% 0.00in /  0mm 0.0 W/m2
23:24 52.0 °F /  11.1 °C 22.3 °F /  -5.4 °C 30.44in /  1030.7hPa Calm   3.0mph /  4.8km/h 31% 0.00in /  0mm 0.0 W/m2
23:30 52.9 °F /  11.6 °C 21.6 °F /  -5.8 °C 30.44in /  1030.7hPa East 4.0mph /  6.4km/h 7.0mph /  11.3km/h 29% 0.00in /  0mm 0.0 W/m2
23:36 53.4 °F /  11.9 °C 20.3 °F /  -6.5 °C 30.44in /  1030.7hPa Calm   5.0mph /  8km/h 27% 0.00in /  0mm 0.0 W/m2
23:42 54.0 °F /  12.2 °C 20.7 °F /  -6.3 °C 30.44in /  1030.7hPa Calm   1.0mph /  1.6km/h 27% 0.00in /  0mm 0.0 W/m2
23:48 54.0 °F /  12.2 °C 20.7 °F /  -6.3 °C 30.44in /  1030.7hPa Calm     27% 0.00in /  0mm 0.0 W/m2
23:54 54.0 °F /  12.2 °C 19.8 °F /  -6.8 °C 30.44in /  1030.7hPa Calm     26% 0.00in /  0mm 0.0 W/m2
Olympia, Windhoek, Namibia
Compliments of Weather Underground - 3 mb